Time;durP1;ratioP1;P1;durP2;ratioP2;P2;SDS_P1;SDS_P2;PMS_P1;PMS_P2;Temp;Humidity;BMP_temperature;BMP_pressure;BME280_temperature;BME280_humidity;BME280_pressure;Samples;Min_cycle;Max_cycle;Signal;HPM_P1;HPM_P2
2023/11/06 00:02:23;;;;;;;4.50;2.23;;;;;;;;;;4976513;28;20226;-79
2023/11/06 00:04:51;;;;;;;2.70;2.03;;;;;;;;;;4981214;28;20687;-79
2023/11/06 00:07:17;;;;;;;3.73;1.73;;;;;;;;;;4979914;28;20639;-79
2023/11/06 00:09:45;;;;;;;6.03;1.87;;;;;;;;;;4960605;28;20231;-78
2023/11/06 00:12:11;;;;;;;6.73;2.30;;;;;;;;;;4963613;28;20218;-79
2023/11/06 00:14:36;;;;;;;5.17;2.40;;;;;;;;;;4967464;28;20530;-79
2023/11/06 00:17:02;;;;;;;3.87;2.23;;;;;;;;;;4962183;28;20229;-78
2023/11/06 00:19:30;;;;;;;4.70;2.07;;;;;;;;;;4944630;28;20901;-80
2023/11/06 00:21:57;;;;;;;5.10;2.40;;;;;;;;;;4984060;28;20739;-79
2023/11/06 00:24:23;;;;;;;7.13;2.27;;;;;;;;;;4967406;28;21513;-79
2023/11/06 00:26:51;;;;;;;6.13;2.80;;;;;;;;;;4979974;28;20267;-78
2023/11/06 00:29:18;;;;;;;3.37;1.93;;;;;;;;;;4993718;28;20279;-79
2023/11/06 00:31:46;;;;;;;4.13;2.30;;;;;;;;;;4967795;28;20234;-80
2023/11/06 00:34:14;;;;;;;4.43;2.20;;;;;;;;;;4982523;28;20221;-78
2023/11/06 00:36:40;;;;;;;7.20;2.43;;;;;;;;;;4970171;28;20225;-78
2023/11/06 00:39:07;;;;;;;4.27;2.30;;;;;;;;;;5004829;28;20240;-80
2023/11/06 00:41:45;;;;;;;7.67;2.20;;;;;;;;;;4972370;28;20236;-79
2023/11/06 00:44:11;;;;;;;6.90;2.30;;;;;;;;;;4984727;28;20224;-79
2023/11/06 00:46:39;;;;;;;7.07;2.30;;;;;;;;;;4975313;28;20218;-79
2023/11/06 00:49:04;;;;;;;5.10;2.40;;;;;;;;;;4945579;28;20231;-79
2023/11/06 00:51:32;;;;;;;10.43;2.93;;;;;;;;;;4993362;28;20240;-78
2023/11/06 00:53:57;;;;;;;5.67;2.63;;;;;;;;;;4968224;28;20222;-79
2023/11/06 00:56:23;;;;;;;5.67;2.40;;;;;;;;;;4987934;28;20237;-79
2023/11/06 00:58:52;;;;;;;9.53;2.77;;;;;;;;;;4994016;28;20703;-80
2023/11/06 01:01:35;;;;;;;4.03;2.60;;;;;;;;;;4954253;28;20234;-79
2023/11/06 01:04:01;;;;;;;3.63;2.40;;;;;;;;;;4961129;28;20222;-79
2023/11/06 01:06:29;;;;;;;8.10;2.50;;;;;;;;;;4958442;28;20657;-79
2023/11/06 01:08:58;;;;;;;5.30;2.67;;;;;;;;;;4963317;28;20284;-79
2023/11/06 01:11:24;;;;;;;6.43;2.77;;;;;;;;;;4976068;28;20226;-79
2023/11/06 01:13:49;;;;;;;6.47;2.67;;;;;;;;;;4951114;28;20288;-80
2023/11/06 01:16:20;;;;;;;6.00;2.70;;;;;;;;;;4948462;28;20226;-80
2023/11/06 01:18:45;;;;;;;7.43;2.70;;;;;;;;;;4971405;28;20233;-79
2023/11/06 01:21:11;;;;;;;6.03;2.33;;;;;;;;;;4972203;28;20222;-81
2023/11/06 01:23:38;;;;;;;3.93;2.37;;;;;;;;;;4982239;28;20223;-79
2023/11/06 01:26:06;;;;;;;3.57;2.07;;;;;;;;;;4988293;28;20267;-80
2023/11/06 01:28:31;;;;;;;5.57;2.20;;;;;;;;;;4966145;28;21682;-79
2023/11/06 01:30:57;;;;;;;3.30;2.27;;;;;;;;;;4995029;28;20699;-80
2023/11/06 01:33:37;;;;;;;5.20;2.27;;;;;;;;;;4977148;28;27297;-81
2023/11/06 01:36:04;;;;;;;2.77;2.20;;;;;;;;;;4979337;28;21026;-79
2023/11/06 01:38:30;;;;;;;9.23;2.47;;;;;;;;;;4947448;28;20237;-80
2023/11/06 01:40:56;;;;;;;5.00;2.67;;;;;;;;;;4948652;28;20593;-79
2023/11/06 01:43:25;;;;;;;6.63;2.70;;;;;;;;;;4946018;28;20249;-79
2023/11/06 01:45:51;;;;;;;5.87;2.43;;;;;;;;;;4980767;28;21157;-78
2023/11/06 01:48:17;;;;;;;4.27;2.27;;;;;;;;;;4960360;28;20210;-80
2023/11/06 01:50:42;;;;;;;4.37;2.30;;;;;;;;;;4973965;28;20271;-78
2023/11/06 01:53:09;;;;;;;5.03;2.23;;;;;;;;;;4960414;28;20286;-77
2023/11/06 01:55:38;;;;;;;4.40;2.20;;;;;;;;;;4972095;28;20222;-79
2023/11/06 01:58:05;;;;;;;6.10;2.70;;;;;;;;;;4978190;28;20230;-78
2023/11/06 02:00:31;;;;;;;4.70;2.27;;;;;;;;;;4985999;28;20792;-80
2023/11/06 02:02:56;;;;;;;3.07;2.40;;;;;;;;;;4961415;28;20238;-79
2023/11/06 02:05:22;;;;;;;5.30;2.70;;;;;;;;;;4947322;28;20230;-79
2023/11/06 02:07:49;;;;;;;6.77;2.70;;;;;;;;;;4963135;28;20238;-79
2023/11/06 02:10:17;;;;;;;7.03;2.43;;;;;;;;;;4955943;28;20228;-79
2023/11/06 02:12:44;;;;;;;5.93;2.40;;;;;;;;;;4979524;28;20245;-78
2023/11/06 02:15:16;;;;;;;4.60;2.90;;;;;;;;;;4968677;28;20241;-80
2023/11/06 02:17:46;;;;;;;4.87;2.33;;;;;;;;;;4975728;23;20635;-74
2023/11/06 02:20:18;;;;;;;3.93;2.40;;;;;;;;;;4993461;28;20711;-73
2023/11/06 02:22:44;;;;;;;6.30;2.03;;;;;;;;;;4960425;28;20222;-73
2023/11/06 02:25:10;;;;;;;6.33;2.20;;;;;;;;;;4973127;28;20228;-73
2023/11/06 02:27:41;;;;;;;4.40;2.40;;;;;;;;;;4971932;28;20235;-75
2023/11/06 02:30:11;;;;;;;4.37;2.70;;;;;;;;;;4973198;28;20616;-75
2023/11/06 02:32:39;;;;;;;3.63;2.23;;;;;;;;;;4954651;28;20244;-74
2023/11/06 02:35:07;;;;;;;7.43;2.13;;;;;;;;;;4994217;28;20228;-74
2023/11/06 02:37:33;;;;;;;3.37;2.10;;;;;;;;;;4976713;28;20664;-75
2023/11/06 02:39:59;;;;;;;5.90;1.80;;;;;;;;;;4973158;28;20236;-73
2023/11/06 02:42:24;;;;;;;5.93;2.33;;;;;;;;;;4992649;28;20218;-74
2023/11/06 02:44:50;;;;;;;4.83;1.63;;;;;;;;;;4989946;28;20214;-74
2023/11/06 02:47:18;;;;;;;3.03;1.73;;;;;;;;;;4976700;28;20611;-74
2023/11/06 02:49:43;;;;;;;6.07;2.23;;;;;;;;;;4976041;28;20222;-74
2023/11/06 02:52:12;;;;;;;4.90;2.37;;;;;;;;;;4978577;28;20233;-74
2023/11/06 02:54:44;;;;;;;5.70;2.23;;;;;;;;;;4994529;28;20671;-74
2023/11/06 02:57:09;;;;;;;6.37;2.67;;;;;;;;;;4976270;28;20240;-75
2023/11/06 02:59:37;;;;;;;5.90;2.87;;;;;;;;;;4977650;28;20240;-74
2023/11/06 03:02:05;;;;;;;7.30;2.67;;;;;;;;;;4977836;28;20695;-74
2023/11/06 03:04:32;;;;;;;5.17;2.37;;;;;;;;;;4971077;28;20226;-74
2023/11/06 03:06:57;;;;;;;3.20;1.93;;;;;;;;;;4977789;28;20713;-74
2023/11/06 03:09:24;;;;;;;4.43;2.23;;;;;;;;;;4992578;28;20257;-74
2023/11/06 03:11:53;;;;;;;3.17;2.07;;;;;;;;;;4965048;28;20608;-74
2023/11/06 03:14:19;;;;;;;6.40;1.90;;;;;;;;;;4976487;28;20224;-72
2023/11/06 03:16:44;;;;;;;3.37;1.83;;;;;;;;;;4981270;28;20236;-73
2023/11/06 03:19:12;;;;;;;3.73;2.40;;;;;;;;;;4976256;28;20712;-74
2023/11/06 03:21:40;;;;;;;6.13;2.20;;;;;;;;;;4993823;28;20214;-74
2023/11/06 03:24:07;;;;;;;3.87;2.03;;;;;;;;;;4980120;28;20210;-74
2023/11/06 03:26:34;;;;;;;3.27;1.90;;;;;;;;;;4978951;28;20229;-74
2023/11/06 03:29:04;;;;;;;4.43;2.20;;;;;;;;;;4979532;28;20606;-74
2023/11/06 03:31:32;;;;;;;3.70;2.33;;;;;;;;;;4964442;28;20218;-74
2023/11/06 03:33:57;;;;;;;6.23;2.00;;;;;;;;;;4970873;28;20665;-73
2023/11/06 03:36:23;;;;;;;4.00;2.13;;;;;;;;;;4994599;28;20225;-74
2023/11/06 03:38:53;;;;;;;10.57;2.87;;;;;;;;;;4979231;28;20222;-73
2023/11/06 03:41:19;;;;;;;3.63;2.03;;;;;;;;;;4991000;28;20218;-74
2023/11/06 03:43:48;;;;;;;3.60;2.30;;;;;;;;;;4992993;28;20206;-74
2023/11/06 03:46:20;;;;;;;4.27;2.40;;;;;;;;;;4975028;28;20228;-74
2023/11/06 03:48:48;;;;;;;8.70;2.60;;;;;;;;;;4978438;28;20236;-75
2023/11/06 03:51:18;;;;;;;6.07;2.67;;;;;;;;;;4991467;28;20252;-74
2023/11/06 03:53:44;;;;;;;3.00;2.23;;;;;;;;;;4993078;28;20305;-74
2023/11/06 03:56:16;;;;;;;3.30;2.40;;;;;;;;;;4990796;28;20228;-73
2023/11/06 03:58:41;;;;;;;6.10;2.60;;;;;;;;;;4973280;28;20305;-73
2023/11/06 04:04:56;;;;;;;5.93;2.50;;;;;;;;;;4976527;28;20222;-74
2023/11/06 04:07:26;;;;;;;5.97;2.37;;;;;;;;;;4961454;28;20322;-74
2023/11/06 04:09:51;;;;;;;4.97;2.37;;;;;;;;;;4960059;28;20249;-74
2023/11/06 04:12:21;;;;;;;9.10;2.77;;;;;;;;;;4946081;28;20228;-74
2023/11/06 04:14:49;;;;;;;3.87;2.23;;;;;;;;;;4949046;28;20221;-74
2023/11/06 04:17:17;;;;;;;5.10;2.67;;;;;;;;;;4964240;28;20256;-74
2023/11/06 04:19:44;;;;;;;6.27;2.57;;;;;;;;;;4946702;28;20284;-74
2023/11/06 04:22:10;;;;;;;7.60;2.67;;;;;;;;;;4946709;28;20716;-74
2023/11/06 04:24:38;;;;;;;4.73;2.40;;;;;;;;;;4962396;28;20221;-73
2023/11/06 04:27:08;;;;;;;4.43;2.63;;;;;;;;;;4961925;28;20341;-74
2023/11/06 04:29:33;;;;;;;5.37;2.77;;;;;;;;;;4977026;28;20703;-73
2023/11/06 04:32:01;;;;;;;5.67;2.90;;;;;;;;;;4963587;28;20237;-75
2023/11/06 04:34:30;;;;;;;6.37;2.67;;;;;;;;;;4962910;28;20253;-76
2023/11/06 04:36:55;;;;;;;4.00;2.27;;;;;;;;;;4967013;22;20946;-79
2023/11/06 04:39:21;;;;;;;5.80;2.50;;;;;;;;;;4978555;28;20232;-79
2023/11/06 04:41:46;;;;;;;5.17;2.90;;;;;;;;;;4974230;28;20213;-78
2023/11/06 04:44:14;;;;;;;8.97;3.00;;;;;;;;;;4996892;28;20224;-79
2023/11/06 04:46:39;;;;;;;5.73;2.30;;;;;;;;;;5007909;28;20263;-79
2023/11/06 04:49:05;;;;;;;3.53;2.37;;;;;;;;;;4971731;28;20961;-78
2023/11/06 04:51:35;;;;;;;3.27;2.40;;;;;;;;;;4987162;28;20553;-78
2023/11/06 04:54:03;;;;;;;7.10;2.63;;;;;;;;;;4966192;28;21047;-78
2023/11/06 04:56:31;;;;;;;4.33;2.40;;;;;;;;;;4988819;28;20236;-79
2023/11/06 04:58:57;;;;;;;5.77;2.20;;;;;;;;;;5004549;28;20220;-79
2023/11/06 05:01:23;;;;;;;5.93;2.47;;;;;;;;;;5007046;28;20240;-79
2023/11/06 05:03:50;;;;;;;4.67;2.30;;;;;;;;;;4958178;28;20235;-78
2023/11/06 05:06:16;;;;;;;5.50;2.13;;;;;;;;;;5005121;28;20275;-79
2023/11/06 05:08:42;;;;;;;5.80;2.43;;;;;;;;;;4990418;28;20232;-79
2023/11/06 05:11:12;;;;;;;4.07;2.30;;;;;;;;;;4989899;28;20224;-78
2023/11/06 05:13:41;;;;;;;6.67;2.03;;;;;;;;;;5002277;28;20719;-78
2023/11/06 05:16:14;;;;;;;3.60;2.10;;;;;;;;;;5005175;28;20279;-79
2023/11/06 05:18:40;;;;;;;6.07;2.27;;;;;;;;;;5004736;28;20248;-79
2023/11/06 05:21:08;;;;;;;3.27;1.87;;;;;;;;;;4987418;28;20257;-79
2023/11/06 05:23:34;;;;;;;4.43;2.10;;;;;;;;;;4970855;28;20252;-78
2023/11/06 05:26:04;;;;;;;4.63;2.23;;;;;;;;;;5005501;28;20212;-79
2023/11/06 05:28:30;;;;;;;5.30;1.97;;;;;;;;;;5003812;28;20232;-78
2023/11/06 05:30:55;;;;;;;6.93;1.90;;;;;;;;;;4998155;28;20307;-78
2023/11/06 05:33:21;;;;;;;4.07;2.27;;;;;;;;;;4988973;28;20221;-79
2023/11/06 05:35:46;;;;;;;6.33;2.50;;;;;;;;;;5005298;28;20233;-79
2023/11/06 05:38:12;;;;;;;4.87;2.20;;;;;;;;;;5003564;28;20229;-78
2023/11/06 05:40:42;;;;;;;8.13;2.40;;;;;;;;;;4973760;28;20232;-80
2023/11/06 05:43:10;;;;;;;4.40;2.40;;;;;;;;;;5008848;28;20217;-79
2023/11/06 05:45:36;;;;;;;4.13;2.27;;;;;;;;;;4998036;28;20279;-79
2023/11/06 05:48:01;;;;;;;4.13;2.37;;;;;;;;;;4995455;28;20224;-79
2023/11/06 05:50:30;;;;;;;6.60;2.70;;;;;;;;;;4971618;28;20697;-77
2023/11/06 05:52:56;;;;;;;5.20;2.10;;;;;;;;;;4986902;28;20232;-77
2023/11/06 05:55:24;;;;;;;6.33;2.47;;;;;;;;;;5003799;28;21610;-78
2023/11/06 05:57:51;;;;;;;4.77;2.23;;;;;;;;;;4989190;28;20216;-79
2023/11/06 06:00:18;;;;;;;5.47;2.50;;;;;;;;;;4989213;28;20227;-77
2023/11/06 06:02:44;;;;;;;5.57;2.47;;;;;;;;;;5004298;28;20259;-77
2023/11/06 06:05:13;;;;;;;6.47;2.53;;;;;;;;;;4972846;28;20660;-80
2023/11/06 06:07:39;;;;;;;4.03;2.33;;;;;;;;;;4984444;28;20223;-79
2023/11/06 06:10:11;;;;;;;3.67;2.40;;;;;;;;;;5006108;28;20224;-78
2023/11/06 06:12:37;;;;;;;4.57;2.53;;;;;;;;;;5003296;28;20227;-78
2023/11/06 06:15:06;;;;;;;4.40;2.67;;;;;;;;;;4997541;28;20216;-78
2023/11/06 06:17:37;;;;;;;3.80;2.10;;;;;;;;;;4993523;28;20213;-78
2023/11/06 06:20:05;;;;;;;6.30;2.50;;;;;;;;;;4992211;28;20300;-78
2023/11/06 06:22:33;;;;;;;2.53;1.93;;;;;;;;;;5008421;28;20282;-78
2023/11/06 06:24:59;;;;;;;4.37;2.30;;;;;;;;;;4991432;28;20213;-76
2023/11/06 06:27:25;;;;;;;5.20;2.20;;;;;;;;;;4990511;28;20247;-79
2023/11/06 06:29:53;;;;;;;4.27;1.93;;;;;;;;;;4991796;28;20228;-78
2023/11/06 06:32:19;;;;;;;5.07;2.37;;;;;;;;;;5009819;28;20217;-79
2023/11/06 06:34:44;;;;;;;4.87;2.53;;;;;;;;;;5007334;28;20267;-79
2023/11/06 06:37:10;;;;;;;4.80;2.17;;;;;;;;;;5013079;28;20446;-78
2023/11/06 06:39:35;;;;;;;4.80;2.30;;;;;;;;;;4985111;28;20231;-79
2023/11/06 06:42:01;;;;;;;5.10;2.33;;;;;;;;;;5012414;28;20213;-79
2023/11/06 06:44:30;;;;;;;8.37;2.30;;;;;;;;;;4973977;28;20227;-79
2023/11/06 06:46:58;;;;;;;7.07;2.40;;;;;;;;;;4972290;28;20267;-80
2023/11/06 06:49:38;;;;;;;4.87;2.33;;;;;;;;;;4971379;28;20288;-79
2023/11/06 06:52:05;;;;;;;5.93;2.93;;;;;;;;;;4990821;28;20228;-78
2023/11/06 06:54:32;;;;;;;6.90;2.77;;;;;;;;;;5005147;28;20225;-79
2023/11/06 06:56:58;;;;;;;5.10;2.57;;;;;;;;;;5008179;28;20243;-80
2023/11/06 06:59:26;;;;;;;6.23;2.30;;;;;;;;;;4974214;28;20871;-79
2023/11/06 07:01:52;;;;;;;4.40;2.90;;;;;;;;;;5006849;28;20235;-77
2023/11/06 07:04:18;;;;;;;8.10;2.80;;;;;;;;;;5002731;28;20221;-79
2023/11/06 07:06:43;;;;;;;6.50;2.33;;;;;;;;;;5005524;28;20232;-79
2023/11/06 07:09:11;;;;;;;6.07;2.70;;;;;;;;;;4989412;28;20224;-78
2023/11/06 07:11:37;;;;;;;3.27;2.37;;;;;;;;;;5005533;28;20232;-81
2023/11/06 07:14:03;;;;;;;4.03;2.00;;;;;;;;;;5005857;28;20217;-79
2023/11/06 07:16:28;;;;;;;6.43;2.63;;;;;;;;;;5004031;28;20224;-78
2023/11/06 07:18:55;;;;;;;4.33;2.13;;;;;;;;;;4990023;28;20812;-80
2023/11/06 07:21:23;;;;;;;8.83;2.63;;;;;;;;;;5005041;28;20220;-79
2023/11/06 07:23:49;;;;;;;4.67;2.07;;;;;;;;;;4976666;28;20226;-79
2023/11/06 07:26:15;;;;;;;3.83;2.33;;;;;;;;;;4990816;28;20652;-79
2023/11/06 07:28:41;;;;;;;3.57;2.07;;;;;;;;;;4991166;28;20225;-78
2023/11/06 07:31:06;;;;;;;6.10;3.10;;;;;;;;;;4975935;28;20229;-81
2023/11/06 07:33:32;;;;;;;8.97;2.23;;;;;;;;;;4994972;28;20595;-79
2023/11/06 07:35:58;;;;;;;10.97;3.03;;;;;;;;;;5010562;28;20590;-80
2023/11/06 07:38:24;;;;;;;3.57;2.03;;;;;;;;;;4970908;28;20792;-78
2023/11/06 07:40:49;;;;;;;3.37;2.23;;;;;;;;;;4977032;28;20232;-77
2023/11/06 07:43:15;;;;;;;7.17;2.07;;;;;;;;;;4990434;28;20225;-78
2023/11/06 07:45:45;;;;;;;3.97;2.23;;;;;;;;;;5024867;28;20213;-78
2023/11/06 07:48:13;;;;;;;4.53;2.40;;;;;;;;;;5007831;28;20239;-77
2023/11/06 07:50:38;;;;;;;6.07;2.67;;;;;;;;;;5009015;28;20237;-77
2023/11/06 07:53:04;;;;;;;3.60;2.10;;;;;;;;;;5009577;28;20745;-76
2023/11/06 07:55:32;;;;;;;8.00;2.33;;;;;;;;;;5011337;28;20760;-80
2023/11/06 07:57:57;;;;;;;3.40;2.27;;;;;;;;;;4980745;28;20220;-78
2023/11/06 08:00:23;;;;;;;3.63;2.00;;;;;;;;;;4991722;28;20303;-78
2023/11/06 08:02:50;;;;;;;9.07;2.43;;;;;;;;;;5017399;28;20224;-77
2023/11/06 08:05:16;;;;;;;4.67;2.23;;;;;;;;;;4977878;28;20289;-80
2023/11/06 08:07:42;;;;;;;5.13;2.10;;;;;;;;;;4982763;28;20221;-80
2023/11/06 08:10:11;;;;;;;3.93;2.10;;;;;;;;;;5004311;28;20255;-76
2023/11/06 08:12:37;;;;;;;6.40;2.20;;;;;;;;;;4992288;28;20231;-77
2023/11/06 08:15:03;;;;;;;5.33;2.47;;;;;;;;;;4993925;28;20221;-79
2023/11/06 08:17:29;;;;;;;4.60;2.27;;;;;;;;;;5015912;28;20221;-77
2023/11/06 08:19:54;;;;;;;8.37;2.30;;;;;;;;;;5010960;28;20248;-79
2023/11/06 08:22:21;;;;;;;5.03;2.27;;;;;;;;;;5005170;28;20319;-77
2023/11/06 08:24:49;;;;;;;3.67;2.03;;;;;;;;;;5001245;28;20221;-77
2023/11/06 08:27:18;;;;;;;3.97;2.63;;;;;;;;;;5002004;28;20300;-77
2023/11/06 08:29:43;;;;;;;5.17;2.20;;;;;;;;;;5003440;28;20279;-77
2023/11/06 08:32:10;;;;;;;3.73;2.00;;;;;;;;;;4999064;28;20225;-78
2023/11/06 08:34:42;;;;;;;4.40;2.07;;;;;;;;;;4965677;28;20222;-79
2023/11/06 08:37:10;;;;;;;10.00;2.30;;;;;;;;;;4975813;28;20232;-78
2023/11/06 08:39:41;;;;;;;4.73;2.27;;;;;;;;;;4980688;28;20236;-79
2023/11/06 08:42:14;;;;;;;6.73;2.30;;;;;;;;;;4985551;28;20256;-78
2023/11/06 08:44:40;;;;;;;3.07;2.57;;;;;;;;;;4965029;28;20292;-78
2023/11/06 08:47:09;;;;;;;11.93;6.27;;;;;;;;;;4982061;28;20311;-78
2023/11/06 08:49:38;;;;;;;5.90;4.73;;;;;;;;;;4997186;28;20664;-78
2023/11/06 08:52:06;;;;;;;8.17;3.43;;;;;;;;;;4966464;28;20221;-78
2023/11/06 08:54:32;;;;;;;5.10;2.30;;;;;;;;;;4984258;28;20224;-79
2023/11/06 08:57:00;;;;;;;5.27;2.67;;;;;;;;;;4964289;28;20286;-78
2023/11/06 08:59:30;;;;;;;12.63;6.10;;;;;;;;;;5000091;28;20228;-77
2023/11/06 09:01:55;;;;;;;4.03;1.97;;;;;;;;;;4984273;28;20286;-78
2023/11/06 09:04:21;;;;;;;5.20;1.90;;;;;;;;;;4981241;28;20750;-78
2023/11/06 09:06:51;;;;;;;2.90;1.70;;;;;;;;;;4985310;28;20220;-78
2023/11/06 09:09:17;;;;;;;3.47;1.60;;;;;;;;;;5003477;28;20227;-78
2023/11/06 09:11:52;;;;;;;4.57;2.40;;;;;;;;;;4989573;28;20221;-77
2023/11/06 09:14:21;;;;;;;3.83;2.17;;;;;;;;;;5003390;28;20370;-77
2023/11/06 09:16:49;;;;;;;4.87;1.90;;;;;;;;;;4990807;28;20212;-78
2023/11/06 09:19:14;;;;;;;7.20;1.80;;;;;;;;;;5000815;28;20213;-78
2023/11/06 09:21:40;;;;;;;2.60;1.70;;;;;;;;;;4997527;28;20260;-78
2023/11/06 09:24:08;;;;;;;3.80;1.70;;;;;;;;;;4976603;28;20213;-77
2023/11/06 09:26:33;;;;;;;3.93;2.00;;;;;;;;;;4988542;28;20650;-78
2023/11/06 09:29:00;;;;;;;5.87;1.80;;;;;;;;;;4973452;28;20213;-79
2023/11/06 09:31:27;;;;;;;3.07;1.57;;;;;;;;;;4986410;28;20282;-78
2023/11/06 09:33:52;;;;;;;4.53;1.63;;;;;;;;;;5003135;28;20270;-81
2023/11/06 09:36:18;;;;;;;4.43;1.70;;;;;;;;;;4971099;28;20221;-79
2023/11/06 09:38:44;;;;;;;4.47;1.93;;;;;;;;;;4985537;28;20220;-79
2023/11/06 09:41:12;;;;;;;4.07;1.90;;;;;;;;;;4989376;28;20267;-78
2023/11/06 09:43:40;;;;;;;3.70;2.30;;;;;;;;;;4983538;28;20220;-79
2023/11/06 09:46:08;;;;;;;4.47;2.20;;;;;;;;;;5019934;28;20316;-78
2023/11/06 09:48:34;;;;;;;4.80;1.63;;;;;;;;;;4986737;28;21000;-78
2023/11/06 09:50:59;;;;;;;5.50;1.53;;;;;;;;;;4984051;28;20224;-79
2023/11/06 09:53:25;;;;;;;4.50;1.70;;;;;;;;;;4983550;28;20232;-81
2023/11/06 09:55:51;;;;;;;3.53;1.60;;;;;;;;;;4987283;28;20224;-78
2023/11/06 09:58:19;;;;;;;3.83;1.37;;;;;;;;;;4987205;28;20306;-78
2023/11/06 10:00:47;;;;;;;8.20;2.03;;;;;;;;;;4988775;28;20360;-79
2023/11/06 10:03:16;;;;;;;2.97;1.43;;;;;;;;;;4973040;28;20759;-80
2023/11/06 10:05:41;;;;;;;3.37;1.80;;;;;;;;;;4989464;28;20246;-80
2023/11/06 10:08:07;;;;;;;4.73;1.80;;;;;;;;;;4985700;28;20280;-80
2023/11/06 10:10:34;;;;;;;2.43;1.30;;;;;;;;;;5005388;28;20221;-80
2023/11/06 10:13:08;;;;;;;3.97;2.20;;;;;;;;;;5006198;28;20248;-81
2023/11/06 10:15:37;;;;;;;4.67;2.53;;;;;;;;;;4991004;28;20230;-80
2023/11/06 10:18:18;;;;;;;4.77;1.70;;;;;;;;;;4988085;28;20225;-79
2023/11/06 10:20:47;;;;;;;3.70;1.80;;;;;;;;;;4987106;28;20225;-79
2023/11/06 10:23:34;;;;;;;6.33;5.33;;;;;;;;;;4967210;28;20323;-79
2023/11/06 10:26:13;;;;;;;4.43;1.77;;;;;;;;;;4989858;28;20222;-78
2023/11/06 10:28:38;;;;;;;5.50;2.80;;;;;;;;;;4988008;28;20278;-80
2023/11/06 10:31:05;;;;;;;3.57;1.50;;;;;;;;;;4984929;28;20220;-78
2023/11/06 10:33:49;;;;;;;3.17;1.47;;;;;;;;;;4988219;28;20701;-78
2023/11/06 10:36:15;;;;;;;5.80;1.90;;;;;;;;;;4982257;28;20221;-79
2023/11/06 10:38:41;;;;;;;3.57;1.30;;;;;;;;;;4985292;28;20670;-81
2023/11/06 10:41:27;;;;;;;4.43;1.70;;;;;;;;;;5004960;28;20217;-79
2023/11/06 10:43:56;;;;;;;3.60;1.80;;;;;;;;;;4986943;28;20232;-77
2023/11/06 10:46:22;;;;;;;5.77;2.00;;;;;;;;;;5004083;28;20217;-78
2023/11/06 10:48:51;;;;;;;4.10;1.53;;;;;;;;;;5001844;28;20229;-79
2023/11/06 10:51:17;;;;;;;3.80;1.43;;;;;;;;;;4986309;28;20224;-80
2023/11/06 10:53:43;;;;;;;3.30;1.57;;;;;;;;;;4962046;28;20290;-79
2023/11/06 10:56:14;;;;;;;3.00;1.40;;;;;;;;;;4989341;28;20710;-80
2023/11/06 10:58:43;;;;;;;6.57;1.90;;;;;;;;;;4987345;28;20789;-77
2023/11/06 11:01:10;;;;;;;3.90;2.00;;;;;;;;;;4986974;28;20221;-79
2023/11/06 11:03:36;;;;;;;4.90;1.97;;;;;;;;;;4986284;28;20221;-80
2023/11/06 11:06:03;;;;;;;4.47;3.07;;;;;;;;;;4987379;28;20311;-79
2023/11/06 11:08:35;;;;;;;5.27;3.27;;;;;;;;;;4986303;23;20301;-74
2023/11/06 11:11:05;;;;;;;7.03;2.30;;;;;;;;;;4947983;28;20221;-74
2023/11/06 11:13:31;;;;;;;3.20;1.80;;;;;;;;;;4963916;28;20226;-74
2023/11/06 11:16:36;;;;;;;4.77;2.67;;;;;;;;;;4964528;28;20230;-74
2023/11/06 11:19:01;;;;;;;6.10;2.60;;;;;;;;;;4948386;28;20232;-74
2023/11/06 11:22:03;;;;;;;4.53;2.37;;;;;;;;;;4947230;28;20309;-74
2023/11/06 11:24:41;;;;;;;5.20;2.40;;;;;;;;;;4963053;28;20563;-74
2023/11/06 11:27:16;;;;;;;4.77;2.67;;;;;;;;;;4953538;28;21255;-75
2023/11/06 11:29:54;;;;;;;4.63;2.20;;;;;;;;;;4964209;28;20320;-74
2023/11/06 11:32:24;;;;;;;4.40;2.10;;;;;;;;;;4975414;28;20259;-75
2023/11/06 11:34:56;;;;;;;4.13;2.20;;;;;;;;;;4963809;28;20305;-74
2023/11/06 11:37:28;;;;;;;9.87;2.40;;;;;;;;;;4962192;28;20648;-75
2023/11/06 11:39:59;;;;;;;5.23;2.07;;;;;;;;;;4962602;28;20233;-75
2023/11/06 11:42:28;;;;;;;3.70;1.90;;;;;;;;;;4932532;28;20330;-75
2023/11/06 11:45:11;;;;;;;6.47;2.57;;;;;;;;;;4947583;28;20218;-75
2023/11/06 11:47:48;;;;;;;5.90;2.17;;;;;;;;;;4952601;28;20237;-75
2023/11/06 11:50:41;;;;;;;3.50;2.20;;;;;;;;;;4964417;28;20244;-75
2023/11/06 11:53:11;;;;;;;5.57;1.90;;;;;;;;;;4978629;28;20233;-75
2023/11/06 11:55:39;;;;;;;5.97;2.17;;;;;;;;;;4947956;28;20221;-73
2023/11/06 11:58:11;;;;;;;3.93;1.93;;;;;;;;;;4963785;28;20301;-76
2023/11/06 12:00:44;;;;;;;3.90;2.07;;;;;;;;;;4964440;28;20332;-75
2023/11/06 12:03:11;;;;;;;4.77;2.03;;;;;;;;;;4948823;28;20864;-75
2023/11/06 12:05:42;;;;;;;7.17;2.10;;;;;;;;;;4963539;28;20222;-75
2023/11/06 12:08:19;;;;;;;4.27;2.20;;;;;;;;;;4947404;28;20330;-74
2023/11/06 12:10:52;;;;;;;5.80;2.20;;;;;;;;;;4967855;28;20545;-75
2023/11/06 12:13:18;;;;;;;4.93;2.17;;;;;;;;;;4943698;28;20377;-74
2023/11/06 12:15:49;;;;;;;7.80;2.30;;;;;;;;;;4963488;28;20225;-75
2023/11/06 12:18:16;;;;;;;8.10;2.40;;;;;;;;;;4962899;28;20223;-75
2023/11/06 12:20:49;;;;;;;5.30;2.47;;;;;;;;;;4963359;28;20233;-75
2023/11/06 12:23:17;;;;;;;4.17;2.20;;;;;;;;;;4947370;28;20731;-75
2023/11/06 12:25:42;;;;;;;3.00;2.10;;;;;;;;;;4963699;28;20301;-75
2023/11/06 12:28:10;;;;;;;8.90;4.63;;;;;;;;;;4947203;28;20229;-74
2023/11/06 12:30:41;;;;;;;6.87;4.27;;;;;;;;;;4951357;28;20218;-74
2023/11/06 12:33:11;;;;;;;8.50;3.60;;;;;;;;;;4953249;28;20246;-75
2023/11/06 12:35:39;;;;;;;6.57;5.30;;;;;;;;;;4963405;28;20234;-75
2023/11/06 12:38:04;;;;;;;7.63;3.43;;;;;;;;;;4962219;28;20265;-74
2023/11/06 12:40:30;;;;;;;7.73;2.40;;;;;;;;;;4931603;28;20230;-75
2023/11/06 12:43:01;;;;;;;4.73;2.37;;;;;;;;;;4926701;28;20214;-75
2023/11/06 12:45:35;;;;;;;6.80;2.63;;;;;;;;;;4931375;28;20226;-74
2023/11/06 12:48:18;;;;;;;6.47;2.70;;;;;;;;;;4965851;28;20238;-75
2023/11/06 12:51:09;;;;;;;3.23;2.23;;;;;;;;;;4948352;28;20218;-75
2023/11/06 12:53:46;;;;;;;7.40;2.60;;;;;;;;;;4949286;28;20218;-76
2023/11/06 12:56:14;;;;;;;4.93;1.93;;;;;;;;;;4944068;28;20217;-74
2023/11/06 12:58:42;;;;;;;3.17;2.23;;;;;;;;;;4947242;28;20285;-75
2023/11/06 13:01:28;;;;;;;5.83;2.30;;;;;;;;;;4945025;28;20226;-75
2023/11/06 13:03:55;;;;;;;6.90;2.30;;;;;;;;;;4962928;28;20245;-75
2023/11/06 13:06:23;;;;;;;3.87;2.10;;;;;;;;;;4945889;28;20284;-76
2023/11/06 13:08:49;;;;;;;5.93;2.10;;;;;;;;;;4961515;28;20292;-75
2023/11/06 13:11:14;;;;;;;5.53;1.90;;;;;;;;;;4946330;28;20222;-75
2023/11/06 13:13:40;;;;;;;7.47;2.47;;;;;;;;;;4977920;28;20226;-74
2023/11/06 13:16:08;;;;;;;10.67;3.20;;;;;;;;;;4963963;28;21175;-75
2023/11/06 13:18:35;;;;;;;4.47;2.07;;;;;;;;;;4931175;28;20750;-75
2023/11/06 13:21:18;;;;;;;5.30;2.77;;;;;;;;;;4945962;28;20250;-76
2023/11/06 13:23:49;;;;;;;9.50;2.73;;;;;;;;;;4946340;28;20554;-76
2023/11/06 13:26:18;;;;;;;6.13;2.30;;;;;;;;;;4946207;28;20712;-75
2023/11/06 13:28:47;;;;;;;9.47;3.33;;;;;;;;;;4964817;28;20234;-74
2023/11/06 13:31:12;;;;;;;3.87;2.20;;;;;;;;;;4944550;28;20225;-73
2023/11/06 13:33:44;;;;;;;4.03;2.20;;;;;;;;;;4946024;28;20296;-74
2023/11/06 13:36:13;;;;;;;4.07;2.30;;;;;;;;;;4945137;28;20257;-74
2023/11/06 13:38:44;;;;;;;7.57;2.77;;;;;;;;;;4959370;28;20230;-75
2023/11/06 13:41:11;;;;;;;6.50;2.10;;;;;;;;;;4951522;28;21506;-74
2023/11/06 13:43:41;;;;;;;4.23;2.00;;;;;;;;;;4930577;28;20313;-74
2023/11/06 13:46:14;;;;;;;5.40;2.27;;;;;;;;;;4945649;28;20636;-74
2023/11/06 13:48:47;;;;;;;6.97;2.10;;;;;;;;;;4961761;28;20249;-74
2023/11/06 13:51:17;;;;;;;7.00;2.10;;;;;;;;;;4952130;28;20226;-74
2023/11/06 13:53:47;;;;;;;5.63;2.40;;;;;;;;;;4962683;28;20242;-74
2023/11/06 13:56:24;;;;;;;5.40;1.80;;;;;;;;;;4959351;28;20228;-74
2023/11/06 13:58:52;;;;;;;3.40;1.80;;;;;;;;;;4963463;28;20897;-74
2023/11/06 14:01:21;;;;;;;4.77;1.90;;;;;;;;;;4945947;28;20225;-74
2023/11/06 14:03:50;;;;;;;6.20;1.67;;;;;;;;;;4949609;28;20632;-74
2023/11/06 14:06:16;;;;;;;5.70;2.03;;;;;;;;;;4930301;28;20230;-73
2023/11/06 14:08:42;;;;;;;6.87;2.00;;;;;;;;;;4961356;28;20241;-74
2023/11/06 14:11:08;;;;;;;4.13;2.10;;;;;;;;;;4927624;28;20238;-75
2023/11/06 14:13:34;;;;;;;6.10;1.67;;;;;;;;;;4945430;28;20222;-75
2023/11/06 14:15:59;;;;;;;4.90;1.60;;;;;;;;;;4965544;28;21252;-74
2023/11/06 14:18:25;;;;;;;6.30;2.07;;;;;;;;;;4927762;28;20735;-74
2023/11/06 14:20:59;;;;;;;4.83;1.93;;;;;;;;;;4949705;28;20297;-73
2023/11/06 14:23:29;;;;;;;6.03;1.77;;;;;;;;;;4961933;28;20739;-76
2023/11/06 14:25:56;;;;;;;8.80;2.13;;;;;;;;;;4972541;28;20222;-79
2023/11/06 14:28:22;;;;;;;5.47;1.77;;;;;;;;;;4953535;28;20261;-79
2023/11/06 14:30:54;;;;;;;4.13;2.00;;;;;;;;;;4940192;28;20222;-80
2023/11/06 14:33:24;;;;;;;13.03;2.00;;;;;;;;;;4965480;28;20595;-78
2023/11/06 14:35:53;;;;;;;4.43;2.20;;;;;;;;;;4933416;28;20738;-79
2023/11/06 14:38:25;;;;;;;9.00;4.03;;;;;;;;;;4949972;28;20229;-80
2023/11/06 14:40:54;;;;;;;5.80;1.93;;;;;;;;;;4955310;28;20232;-78
2023/11/06 14:43:23;;;;;;;4.17;2.23;;;;;;;;;;4956226;28;20225;-81
2023/11/06 14:45:53;;;;;;;5.10;2.97;;;;;;;;;;4958461;28;20228;-79
2023/11/06 14:48:24;;;;;;;4.70;1.77;;;;;;;;;;4958544;28;20237;-79
2023/11/06 14:50:57;;;;;;;5.67;2.10;;;;;;;;;;4971795;28;20298;-78
2023/11/06 14:53:30;;;;;;;3.17;1.87;;;;;;;;;;4938550;28;20230;-77
2023/11/06 14:55:56;;;;;;;7.53;2.43;;;;;;;;;;4968840;28;20221;-78